Time;durP1;ratioP1;P1;durP2;ratioP2;P2;SDS_P1;SDS_P2;PMS_P1;PMS_P2;Temp;Humidity;BMP_temperature;BMP_pressure;BME280_temperature;BME280_humidity;BME280_pressure;Samples;Min_cycle;Max_cycle;Signal;HPM_P1;HPM_P2
2024/01/12 00:00:26;;;;;;;11.73;3.93;;;;;;;;;;5015806;28;20175;-72
2024/01/12 00:02:51;;;;;;;9.90;3.10;;;;;;;;;;5029883;28;20654;-72
2024/01/12 00:05:16;;;;;;;12.07;3.23;;;;;;;;;;5026831;28;20203;-73
2024/01/12 00:07:41;;;;;;;5.13;2.47;;;;;;;;;;5032969;28;20189;-72
2024/01/12 00:10:08;;;;;;;14.47;4.43;;;;;;;;;;5032108;28;20178;-72
2024/01/12 00:12:33;;;;;;;16.73;3.27;;;;;;;;;;5031022;28;20256;-72
2024/01/12 00:14:58;;;;;;;11.90;2.80;;;;;;;;;;5009930;28;20222;-72
2024/01/12 00:17:24;;;;;;;16.60;3.27;;;;;;;;;;5033879;28;20590;-73
2024/01/12 00:19:49;;;;;;;9.97;3.00;;;;;;;;;;5033393;28;20194;-72
2024/01/12 00:22:14;;;;;;;10.93;3.73;;;;;;;;;;5031640;28;20256;-72
2024/01/12 00:24:39;;;;;;;13.07;2.70;;;;;;;;;;5028597;28;20194;-72
2024/01/12 00:27:04;;;;;;;4.97;2.63;;;;;;;;;;5030378;28;20590;-72
2024/01/12 00:29:30;;;;;;;10.67;2.70;;;;;;;;;;5030895;28;20232;-72
2024/01/12 00:31:55;;;;;;;13.93;3.13;;;;;;;;;;5032897;28;20759;-72
2024/01/12 00:34:20;;;;;;;11.70;2.73;;;;;;;;;;5030199;28;20213;-73
2024/01/12 00:36:48;;;;;;;11.97;2.63;;;;;;;;;;5031391;28;20189;-72
2024/01/12 00:39:13;;;;;;;11.70;3.33;;;;;;;;;;5031759;28;20558;-72
2024/01/12 00:41:38;;;;;;;14.87;2.80;;;;;;;;;;5030289;28;20186;-72
2024/01/12 00:44:05;;;;;;;12.33;3.27;;;;;;;;;;5031642;28;20284;-73
2024/01/12 00:46:31;;;;;;;9.20;2.30;;;;;;;;;;5030785;28;20179;-72
2024/01/12 00:48:56;;;;;;;10.63;2.27;;;;;;;;;;5026344;28;20589;-72
2024/01/12 00:51:21;;;;;;;9.00;2.63;;;;;;;;;;5036098;28;20206;-72
2024/01/12 00:53:47;;;;;;;18.20;4.70;;;;;;;;;;5033368;28;20705;-72
2024/01/12 00:56:12;;;;;;;13.90;2.83;;;;;;;;;;5027276;28;20650;-72
2024/01/12 00:58:37;;;;;;;11.80;2.90;;;;;;;;;;5029222;28;20677;-72
2024/01/12 01:01:03;;;;;;;12.03;2.87;;;;;;;;;;5029546;28;20194;-73
2024/01/12 01:03:29;;;;;;;10.50;2.27;;;;;;;;;;5030367;28;20178;-73
2024/01/12 01:05:55;;;;;;;9.23;3.40;;;;;;;;;;5025586;28;20183;-72
2024/01/12 01:08:20;;;;;;;12.80;2.60;;;;;;;;;;5030320;28;20563;-73
2024/01/12 01:10:46;;;;;;;17.03;2.90;;;;;;;;;;5028910;28;20228;-72
2024/01/12 01:13:12;;;;;;;9.13;2.53;;;;;;;;;;5030800;28;20179;-72
2024/01/12 01:15:37;;;;;;;7.03;1.90;;;;;;;;;;5031365;28;20196;-72
2024/01/12 01:18:02;;;;;;;7.60;2.67;;;;;;;;;;5030372;28;20185;-73
2024/01/12 01:20:28;;;;;;;12.90;3.20;;;;;;;;;;5029014;28;20177;-72
2024/01/12 01:22:53;;;;;;;12.97;2.83;;;;;;;;;;5031870;28;20212;-73
2024/01/12 01:25:18;;;;;;;6.10;2.40;;;;;;;;;;5030307;28;20267;-72
2024/01/12 01:27:43;;;;;;;13.13;2.30;;;;;;;;;;5027161;28;20193;-72
2024/01/12 01:30:09;;;;;;;9.27;2.53;;;;;;;;;;5030384;28;20186;-72
2024/01/12 01:32:34;;;;;;;10.43;1.87;;;;;;;;;;5027449;28;20217;-73
2024/01/12 01:34:59;;;;;;;11.20;2.63;;;;;;;;;;5028544;28;20213;-73
2024/01/12 01:37:24;;;;;;;13.50;3.00;;;;;;;;;;5030372;28;20213;-72
2024/01/12 01:39:50;;;;;;;8.47;2.20;;;;;;;;;;5029877;28;20178;-73
2024/01/12 01:42:16;;;;;;;8.20;1.93;;;;;;;;;;5030151;28;20658;-72
2024/01/12 01:44:41;;;;;;;10.17;2.80;;;;;;;;;;5028277;28;20237;-72
2024/01/12 01:47:06;;;;;;;8.23;1.77;;;;;;;;;;5011759;28;20186;-72
2024/01/12 01:49:31;;;;;;;13.73;2.33;;;;;;;;;;5030201;28;20263;-72
2024/01/12 01:51:57;;;;;;;16.30;2.57;;;;;;;;;;5029374;28;20568;-72
2024/01/12 01:54:22;;;;;;;7.53;2.53;;;;;;;;;;5028283;28;20567;-73
2024/01/12 01:56:48;;;;;;;8.23;2.53;;;;;;;;;;5031294;28;20189;-72
2024/01/12 01:59:13;;;;;;;10.97;2.63;;;;;;;;;;5030302;28;20186;-72
2024/01/12 02:01:38;;;;;;;6.53;2.00;;;;;;;;;;5028385;28;20198;-72
2024/01/12 02:04:04;;;;;;;8.97;2.47;;;;;;;;;;5029360;28;20201;-73
2024/01/12 02:06:29;;;;;;;9.80;2.27;;;;;;;;;;5028785;28;20186;-72
2024/01/12 02:08:56;;;;;;;13.87;2.73;;;;;;;;;;5024155;28;20201;-73
2024/01/12 02:11:21;;;;;;;12.47;2.23;;;;;;;;;;5030543;28;20184;-72
2024/01/12 02:13:47;;;;;;;6.77;2.40;;;;;;;;;;5031775;28;20209;-70
2024/01/12 02:16:12;;;;;;;10.83;2.83;;;;;;;;;;5027974;28;20190;-71
2024/01/12 02:18:37;;;;;;;8.70;2.40;;;;;;;;;;5028067;28;20274;-70
2024/01/12 02:21:03;;;;;;;3.80;2.27;;;;;;;;;;5027121;28;20201;-70
2024/01/12 02:23:28;;;;;;;5.80;2.10;;;;;;;;;;5032747;28;20170;-71
2024/01/12 02:25:53;;;;;;;13.03;2.50;;;;;;;;;;5033494;28;20212;-71
2024/01/12 02:28:19;;;;;;;5.80;2.23;;;;;;;;;;5030994;28;20182;-71
2024/01/12 02:30:44;;;;;;;8.60;2.43;;;;;;;;;;5033163;28;20250;-70
2024/01/12 02:33:09;;;;;;;4.20;1.63;;;;;;;;;;5031717;28;20178;-70
2024/01/12 02:35:35;;;;;;;8.33;2.13;;;;;;;;;;5033518;28;20205;-71
2024/01/12 02:38:00;;;;;;;6.87;2.20;;;;;;;;;;5033698;28;20220;-70
2024/01/12 02:40:25;;;;;;;5.67;1.77;;;;;;;;;;5013643;28;20677;-69
2024/01/12 02:42:50;;;;;;;8.07;2.27;;;;;;;;;;5033061;28;20199;-71
2024/01/12 02:45:16;;;;;;;6.30;2.00;;;;;;;;;;5014403;28;21155;-70
2024/01/12 02:47:41;;;;;;;6.63;2.30;;;;;;;;;;5035726;28;20260;-70
2024/01/12 02:50:07;;;;;;;7.33;1.93;;;;;;;;;;5032788;28;20413;-70
2024/01/12 02:52:35;;;;;;;7.10;3.27;;;;;;;;;;5032452;28;20257;-70
2024/01/12 02:55:01;;;;;;;10.73;3.03;;;;;;;;;;5033871;28;20224;-70
2024/01/12 02:57:26;;;;;;;13.97;2.80;;;;;;;;;;5031199;28;20190;-70
2024/01/12 02:59:51;;;;;;;9.97;2.30;;;;;;;;;;5033731;28;20182;-70
2024/01/12 03:02:16;;;;;;;6.47;1.97;;;;;;;;;;5032982;28;20285;-70
2024/01/12 03:04:42;;;;;;;6.53;2.23;;;;;;;;;;5033007;28;21054;-71
2024/01/12 03:07:07;;;;;;;9.10;3.13;;;;;;;;;;5036957;28;20203;-70
2024/01/12 03:09:32;;;;;;;9.17;2.30;;;;;;;;;;5031547;28;20175;-70
2024/01/12 03:11:57;;;;;;;12.80;1.97;;;;;;;;;;5034183;28;20634;-70
2024/01/12 03:14:23;;;;;;;9.80;2.70;;;;;;;;;;5032960;28;20224;-70
2024/01/12 03:16:48;;;;;;;6.63;1.90;;;;;;;;;;5031866;28;20677;-70
2024/01/12 03:19:13;;;;;;;18.27;3.37;;;;;;;;;;5034029;28;20185;-70
2024/01/12 03:21:38;;;;;;;9.60;2.70;;;;;;;;;;5032336;28;20209;-71
2024/01/12 03:24:04;;;;;;;9.77;2.03;;;;;;;;;;5032546;28;20198;-69
2024/01/12 03:26:29;;;;;;;6.97;2.10;;;;;;;;;;5014110;28;20197;-71
2024/01/12 03:28:54;;;;;;;8.90;2.00;;;;;;;;;;5031144;28;20446;-70
2024/01/12 03:31:20;;;;;;;13.03;2.73;;;;;;;;;;5029331;28;20210;-71
2024/01/12 03:33:45;;;;;;;10.60;2.10;;;;;;;;;;5033380;28;20419;-70
2024/01/12 03:36:10;;;;;;;9.17;3.20;;;;;;;;;;5031973;28;20281;-70
2024/01/12 03:38:35;;;;;;;9.23;2.07;;;;;;;;;;5033832;28;20678;-70
2024/01/12 03:41:03;;;;;;;7.77;3.00;;;;;;;;;;5030769;28;20178;-69
2024/01/12 03:43:29;;;;;;;8.87;1.83;;;;;;;;;;5032057;28;20186;-70
2024/01/12 03:45:54;;;;;;;6.83;2.53;;;;;;;;;;5033067;28;20589;-71
2024/01/12 03:48:19;;;;;;;2.57;1.87;;;;;;;;;;5032598;28;20197;-71
2024/01/12 03:50:44;;;;;;;13.27;2.33;;;;;;;;;;5032459;28;20190;-71
2024/01/12 03:53:09;;;;;;;8.87;1.90;;;;;;;;;;5032458;28;20201;-70
2024/01/12 03:55:35;;;;;;;9.13;2.30;;;;;;;;;;5037250;28;20197;-69
2024/01/12 03:58:00;;;;;;;4.57;1.90;;;;;;;;;;5030145;28;20214;-70
2024/01/12 04:00:25;;;;;;;5.03;1.90;;;;;;;;;;5011451;28;20188;-69
2024/01/12 04:02:50;;;;;;;4.53;1.97;;;;;;;;;;5031090;28;20301;-70
2024/01/12 04:05:16;;;;;;;8.20;3.60;;;;;;;;;;5031532;28;20200;-70
2024/01/12 04:07:41;;;;;;;12.10;3.10;;;;;;;;;;5031765;28;20269;-70
2024/01/12 04:10:06;;;;;;;4.40;2.13;;;;;;;;;;5029403;28;20273;-70
2024/01/12 04:12:31;;;;;;;9.67;2.30;;;;;;;;;;5034175;28;20181;-70
2024/01/12 04:14:56;;;;;;;7.03;1.97;;;;;;;;;;5029443;28;20206;-70
2024/01/12 04:17:23;;;;;;;9.37;2.37;;;;;;;;;;5014673;28;20186;-70
2024/01/12 04:19:48;;;;;;;7.60;2.10;;;;;;;;;;5030036;28;20186;-70
2024/01/12 04:22:13;;;;;;;2.73;1.60;;;;;;;;;;5014670;28;20357;-68
2024/01/12 04:24:38;;;;;;;11.87;3.03;;;;;;;;;;5024155;28;20669;-68
2024/01/12 04:27:05;;;;;;;8.93;2.37;;;;;;;;;;5031493;28;20186;-69
2024/01/12 04:29:30;;;;;;;6.77;2.07;;;;;;;;;;5027863;28;20172;-69
2024/01/12 04:31:55;;;;;;;5.83;2.70;;;;;;;;;;5014299;28;20205;-68
2024/01/12 04:34:20;;;;;;;7.10;1.83;;;;;;;;;;5031156;28;20206;-69
2024/01/12 04:36:46;;;;;;;11.83;2.50;;;;;;;;;;5031988;28;20233;-69
2024/01/12 04:39:12;;;;;;;6.70;2.83;;;;;;;;;;5025649;28;20194;-68
2024/01/12 04:41:37;;;;;;;7.03;2.20;;;;;;;;;;5031121;28;20711;-69
2024/01/12 04:44:02;;;;;;;2.80;1.83;;;;;;;;;;5031194;28;20255;-69
2024/01/12 04:46:28;;;;;;;8.93;3.27;;;;;;;;;;5029921;28;20259;-69
2024/01/12 04:48:53;;;;;;;6.23;2.60;;;;;;;;;;5030345;28;20197;-70
2024/01/12 04:51:18;;;;;;;17.13;2.80;;;;;;;;;;5029329;28;20190;-70
2024/01/12 04:53:43;;;;;;;5.07;2.07;;;;;;;;;;5030208;28;20194;-69
2024/01/12 04:56:08;;;;;;;7.20;2.03;;;;;;;;;;5010960;28;20189;-69
2024/01/12 04:58:34;;;;;;;4.17;1.87;;;;;;;;;;5031026;28;20248;-71
2024/01/12 05:00:59;;;;;;;3.60;2.20;;;;;;;;;;5012511;28;20716;-69
2024/01/12 05:03:24;;;;;;;5.63;1.90;;;;;;;;;;5029948;28;20661;-69
2024/01/12 05:05:49;;;;;;;6.60;2.40;;;;;;;;;;5030634;28;20658;-70
2024/01/12 05:08:14;;;;;;;3.90;2.33;;;;;;;;;;5029993;28;20198;-67
2024/01/12 05:10:40;;;;;;;7.80;2.10;;;;;;;;;;5030802;28;20269;-68
2024/01/12 05:13:05;;;;;;;5.97;2.37;;;;;;;;;;5032307;28;20204;-67
2024/01/12 05:15:30;;;;;;;5.90;2.13;;;;;;;;;;5030006;28;20210;-68
2024/01/12 05:17:55;;;;;;;8.10;2.57;;;;;;;;;;5013616;28;20186;-69
2024/01/12 05:20:21;;;;;;;5.07;2.53;;;;;;;;;;5029646;28;20216;-68
2024/01/12 05:22:46;;;;;;;9.77;2.90;;;;;;;;;;5029423;28;20236;-68
2024/01/12 05:25:12;;;;;;;9.13;2.43;;;;;;;;;;5029743;28;20216;-67
2024/01/12 05:27:37;;;;;;;7.47;2.03;;;;;;;;;;5029748;28;20182;-69
2024/01/12 05:30:02;;;;;;;5.77;2.13;;;;;;;;;;5029647;28;20204;-68
2024/01/12 05:32:27;;;;;;;5.23;2.40;;;;;;;;;;5028819;28;20186;-68
2024/01/12 05:34:53;;;;;;;5.50;2.07;;;;;;;;;;5029531;28;20221;-71
2024/01/12 05:37:18;;;;;;;3.47;2.00;;;;;;;;;;5032153;28;20185;-69
2024/01/12 05:39:43;;;;;;;10.43;2.13;;;;;;;;;;5028478;28;20178;-69
2024/01/12 05:42:08;;;;;;;5.40;2.27;;;;;;;;;;5028503;28;20202;-68
2024/01/12 05:44:34;;;;;;;4.70;2.33;;;;;;;;;;5029733;28;20210;-70
2024/01/12 05:46:59;;;;;;;6.23;2.13;;;;;;;;;;5030296;28;20170;-67
2024/01/12 05:49:24;;;;;;;4.07;2.43;;;;;;;;;;5029950;28;20244;-69
2024/01/12 05:51:51;;;;;;;3.83;2.33;;;;;;;;;;5031385;28;20301;-68
2024/01/12 05:54:16;;;;;;;6.10;3.70;;;;;;;;;;5029799;28;20225;-68
2024/01/12 05:56:41;;;;;;;8.33;2.30;;;;;;;;;;5029846;28;20653;-69
2024/01/12 05:59:06;;;;;;;6.20;2.73;;;;;;;;;;5028838;28;20704;-68
2024/01/12 06:01:31;;;;;;;9.33;2.83;;;;;;;;;;5027752;28;20194;-68
2024/01/12 06:03:57;;;;;;;9.90;3.20;;;;;;;;;;5012879;28;20256;-69
2024/01/12 06:06:23;;;;;;;6.90;2.80;;;;;;;;;;5029643;28;20187;-68
2024/01/12 06:08:49;;;;;;;7.77;2.83;;;;;;;;;;5030088;28;20170;-68
2024/01/12 06:11:14;;;;;;;5.57;3.00;;;;;;;;;;5028671;28;20277;-69
2024/01/12 06:13:39;;;;;;;9.77;2.90;;;;;;;;;;5034768;28;20218;-71
2024/01/12 06:16:05;;;;;;;4.23;2.80;;;;;;;;;;5024353;28;20534;-68
2024/01/12 06:18:30;;;;;;;6.53;2.67;;;;;;;;;;5028378;28;20214;-69
2024/01/12 06:20:55;;;;;;;4.97;2.60;;;;;;;;;;5027676;28;20540;-70
2024/01/12 06:23:20;;;;;;;8.30;3.53;;;;;;;;;;5029463;28;20188;-69
2024/01/12 06:25:45;;;;;;;8.07;2.57;;;;;;;;;;5027575;28;20646;-69
2024/01/12 06:28:11;;;;;;;5.47;2.93;;;;;;;;;;5027930;28;20182;-70
2024/01/12 06:30:36;;;;;;;7.20;2.83;;;;;;;;;;5028234;28;20175;-69
2024/01/12 06:33:01;;;;;;;10.67;2.73;;;;;;;;;;5029488;28;20185;-68
2024/01/12 06:35:26;;;;;;;6.53;3.23;;;;;;;;;;5029655;28;20359;-69
2024/01/12 06:37:51;;;;;;;11.27;2.47;;;;;;;;;;5026511;28;20189;-68
2024/01/12 06:40:17;;;;;;;5.80;2.70;;;;;;;;;;5027001;28;20658;-69
2024/01/12 06:42:42;;;;;;;7.40;2.60;;;;;;;;;;5028306;28;20297;-69
2024/01/12 06:45:08;;;;;;;4.37;2.53;;;;;;;;;;5029114;28;20309;-70
2024/01/12 06:47:34;;;;;;;7.57;3.20;;;;;;;;;;5027813;28;20187;-69
2024/01/12 06:49:59;;;;;;;6.07;2.90;;;;;;;;;;5028888;28;20178;-69
2024/01/12 06:52:24;;;;;;;6.47;2.53;;;;;;;;;;5026222;28;20658;-68
2024/01/12 06:54:49;;;;;;;3.67;2.70;;;;;;;;;;5032320;28;20220;-69
2024/01/12 06:57:15;;;;;;;7.57;3.13;;;;;;;;;;5030103;28;20178;-71
2024/01/12 06:59:40;;;;;;;9.30;3.33;;;;;;;;;;5029275;28;20196;-69
2024/01/12 07:02:05;;;;;;;7.97;2.80;;;;;;;;;;5030237;28;20210;-69
2024/01/12 07:04:31;;;;;;;6.33;2.80;;;;;;;;;;5034158;28;20289;-69
2024/01/12 07:06:56;;;;;;;5.97;3.10;;;;;;;;;;5028605;28;20205;-69
2024/01/12 07:09:21;;;;;;;5.63;2.83;;;;;;;;;;5034050;28;20217;-69
2024/01/12 07:11:46;;;;;;;7.90;3.23;;;;;;;;;;5032170;28;20182;-70
2024/01/12 07:14:14;;;;;;;9.87;3.53;;;;;;;;;;5031848;28;20221;-68
2024/01/12 07:16:39;;;;;;;7.37;2.67;;;;;;;;;;5026839;28;20736;-69
2024/01/12 07:19:04;;;;;;;6.00;3.40;;;;;;;;;;5033134;28;20183;-72
2024/01/12 07:21:30;;;;;;;4.40;2.83;;;;;;;;;;5026490;28;20326;-71
2024/01/12 07:23:55;;;;;;;7.23;4.23;;;;;;;;;;5029891;28;20201;-71
2024/01/12 07:26:20;;;;;;;7.77;3.37;;;;;;;;;;5014932;28;20202;-71
2024/01/12 07:28:45;;;;;;;7.53;3.27;;;;;;;;;;5029880;28;20744;-69
2024/01/12 07:31:11;;;;;;;6.27;3.90;;;;;;;;;;5028540;28;20178;-70
2024/01/12 07:33:36;;;;;;;7.30;3.93;;;;;;;;;;5007655;28;20191;-71
2024/01/12 07:36:01;;;;;;;4.77;3.20;;;;;;;;;;5031605;28;20273;-71
2024/01/12 07:38:26;;;;;;;5.50;3.07;;;;;;;;;;5027742;28;20170;-70
2024/01/12 07:40:52;;;;;;;5.97;3.33;;;;;;;;;;5030919;28;20450;-71
2024/01/12 07:43:17;;;;;;;6.10;2.57;;;;;;;;;;5027180;28;20289;-68
2024/01/12 07:45:42;;;;;;;8.53;3.90;;;;;;;;;;5021109;28;20638;-68
2024/01/12 07:48:10;;;;;;;8.00;3.80;;;;;;;;;;5029878;28;20639;-70
2024/01/12 07:50:36;;;;;;;8.97;3.40;;;;;;;;;;5021121;28;20179;-70
2024/01/12 07:53:01;;;;;;;11.20;4.17;;;;;;;;;;5031921;28;20189;-71
2024/01/12 07:55:27;;;;;;;4.53;3.10;;;;;;;;;;5033498;28;20685;-70
2024/01/12 07:57:52;;;;;;;8.87;3.40;;;;;;;;;;5030095;28;20669;-70
2024/01/12 08:00:18;;;;;;;8.33;3.53;;;;;;;;;;5026074;28;20191;-70
2024/01/12 08:02:43;;;;;;;5.03;3.60;;;;;;;;;;5011867;28;20198;-71
2024/01/12 08:05:08;;;;;;;9.80;3.60;;;;;;;;;;5030099;28;20206;-71
2024/01/12 08:07:34;;;;;;;9.97;3.23;;;;;;;;;;5029488;28;20182;-71
2024/01/12 08:10:00;;;;;;;8.63;3.20;;;;;;;;;;5027520;28;20190;-71
2024/01/12 08:12:25;;;;;;;8.50;3.57;;;;;;;;;;5032110;28;20178;-71
2024/01/12 08:14:50;;;;;;;6.67;3.80;;;;;;;;;;5139924;22;20364;-69
2024/01/12 08:17:15;;;;;;;6.87;3.43;;;;;;;;;;5016663;28;20270;-70
2024/01/12 08:19:40;;;;;;;4.63;3.30;;;;;;;;;;5002842;28;20605;-69
2024/01/12 08:22:06;;;;;;;6.57;3.73;;;;;;;;;;5011384;28;20610;-69
2024/01/12 08:24:31;;;;;;;7.70;4.07;;;;;;;;;;5003870;28;20652;-70
2024/01/12 08:26:56;;;;;;;11.37;4.50;;;;;;;;;;5008436;28;20187;-70
2024/01/12 08:29:21;;;;;;;7.77;3.97;;;;;;;;;;5009824;28;20187;-70
2024/01/12 08:31:49;;;;;;;12.10;4.67;;;;;;;;;;5007950;28;20570;-70
2024/01/12 08:34:15;;;;;;;6.10;3.50;;;;;;;;;;5009603;28;20333;-70
2024/01/12 08:36:40;;;;;;;12.27;4.40;;;;;;;;;;5009255;28;20698;-71
2024/01/12 08:39:05;;;;;;;9.07;4.60;;;;;;;;;;5001027;28;21409;-70
2024/01/12 08:41:30;;;;;;;9.07;4.03;;;;;;;;;;5005050;28;20213;-71
2024/01/12 08:43:57;;;;;;;6.97;4.23;;;;;;;;;;5014654;28;20179;-71
2024/01/12 08:46:22;;;;;;;7.40;4.30;;;;;;;;;;5006181;28;21386;-70
2024/01/12 08:48:48;;;;;;;5.27;4.03;;;;;;;;;;4997869;28;20183;-70
2024/01/12 08:51:14;;;;;;;9.20;4.70;;;;;;;;;;4987281;28;20187;-71
2024/01/12 08:53:39;;;;;;;19.23;5.23;;;;;;;;;;4998501;28;20250;-71
2024/01/12 08:56:07;;;;;;;9.70;4.40;;;;;;;;;;5006839;28;20179;-71
2024/01/12 08:58:32;;;;;;;12.70;5.33;;;;;;;;;;5004925;28;20179;-71
2024/01/12 09:00:57;;;;;;;6.43;4.07;;;;;;;;;;5008043;28;20234;-71
2024/01/12 09:03:23;;;;;;;8.30;3.50;;;;;;;;;;5004164;28;20203;-69
2024/01/12 09:05:48;;;;;;;11.00;5.03;;;;;;;;;;4997725;28;20191;-71
2024/01/12 09:08:13;;;;;;;10.00;4.30;;;;;;;;;;5009548;28;20532;-69
2024/01/12 09:10:39;;;;;;;12.00;5.77;;;;;;;;;;5004727;28;20182;-70
2024/01/12 09:13:04;;;;;;;8.53;3.60;;;;;;;;;;5006557;28;20258;-70
2024/01/12 09:15:29;;;;;;;14.07;4.47;;;;;;;;;;4999068;28;20301;-71
2024/01/12 09:17:54;;;;;;;11.23;5.00;;;;;;;;;;5006755;28;20266;-70
2024/01/12 09:20:19;;;;;;;10.27;4.40;;;;;;;;;;4992346;28;20175;-71
2024/01/12 09:22:45;;;;;;;5.17;4.07;;;;;;;;;;5007254;28;20589;-71
2024/01/12 09:25:10;;;;;;;8.07;5.37;;;;;;;;;;5010610;28;20195;-71
2024/01/12 09:27:35;;;;;;;14.13;4.43;;;;;;;;;;5003899;28;20174;-70
2024/01/12 09:30:01;;;;;;;7.87;4.13;;;;;;;;;;5010143;28;20524;-70
2024/01/12 09:32:26;;;;;;;6.47;3.57;;;;;;;;;;5005320;28;20175;-70
2024/01/12 09:34:51;;;;;;;9.73;4.43;;;;;;;;;;5010777;28;20190;-70
2024/01/12 09:37:16;;;;;;;10.43;5.53;;;;;;;;;;4988546;28;20178;-71
2024/01/12 09:39:42;;;;;;;9.27;4.97;;;;;;;;;;5009584;28;20525;-69
2024/01/12 09:42:09;;;;;;;13.07;4.20;;;;;;;;;;5009190;28;20609;-70
2024/01/12 09:44:36;;;;;;;15.30;4.50;;;;;;;;;;5008620;28;20198;-70
2024/01/12 09:47:02;;;;;;;12.73;4.67;;;;;;;;;;4993313;28;20269;-70
2024/01/12 09:49:28;;;;;;;7.77;4.00;;;;;;;;;;5000643;28;20262;-69
2024/01/12 09:51:54;;;;;;;8.53;4.60;;;;;;;;;;5005995;28;20183;-70
2024/01/12 09:54:19;;;;;;;9.73;4.67;;;;;;;;;;5005915;28;20202;-69
2024/01/12 09:56:45;;;;;;;9.37;4.37;;;;;;;;;;5003528;28;20784;-69
2024/01/12 09:59:11;;;;;;;16.07;5.67;;;;;;;;;;5008280;28;20174;-70
2024/01/12 10:01:37;;;;;;;9.03;4.10;;;;;;;;;;5013668;28;20205;-70
2024/01/12 10:04:03;;;;;;;7.57;4.30;;;;;;;;;;5004709;28;20204;-71
2024/01/12 10:06:28;;;;;;;10.50;4.30;;;;;;;;;;5008124;28;20171;-70
2024/01/12 10:08:53;;;;;;;13.33;4.37;;;;;;;;;;5006159;28;20185;-69
2024/01/12 10:11:18;;;;;;;9.37;4.17;;;;;;;;;;5012590;28;20189;-70
2024/01/12 10:13:43;;;;;;;10.83;4.10;;;;;;;;;;4990931;28;20190;-70
2024/01/12 10:16:09;;;;;;;9.10;3.90;;;;;;;;;;5007963;28;20214;-70
2024/01/12 10:18:34;;;;;;;15.40;4.60;;;;;;;;;;5006774;28;20213;-70
2024/01/12 10:20:59;;;;;;;7.90;4.40;;;;;;;;;;4990721;28;20634;-71
2024/01/12 10:23:26;;;;;;;14.33;3.60;;;;;;;;;;5009119;28;20234;-70
2024/01/12 10:25:55;;;;;;;9.07;4.27;;;;;;;;;;4987850;28;20604;-70
2024/01/12 10:28:20;;;;;;;10.97;3.83;;;;;;;;;;5004262;28;20182;-70
2024/01/12 10:30:46;;;;;;;17.70;3.30;;;;;;;;;;5010482;28;20569;-71
2024/01/12 10:33:11;;;;;;;8.23;3.50;;;;;;;;;;5006029;28;20198;-69
2024/01/12 10:35:36;;;;;;;9.73;4.27;;;;;;;;;;5007634;28;20563;-70
2024/01/12 10:38:02;;;;;;;8.77;3.63;;;;;;;;;;5007317;28;20192;-70
2024/01/12 10:40:27;;;;;;;10.73;3.27;;;;;;;;;;5006811;28;20229;-71
2024/01/12 10:42:55;;;;;;;13.33;2.87;;;;;;;;;;5006657;28;20199;-71
2024/01/12 10:45:25;;;;;;;7.07;2.63;;;;;;;;;;5006798;28;20594;-69
2024/01/12 10:48:00;;;;;;;9.80;2.57;;;;;;;;;;5013791;28;20175;-70
2024/01/12 10:50:25;;;;;;;7.93;3.07;;;;;;;;;;5009822;28;20626;-69
2024/01/12 10:53:17;;;;;;;5.37;2.23;;;;;;;;;;5009277;28;20175;-70
2024/01/12 10:55:49;;;;;;;5.87;2.07;;;;;;;;;;5006146;28;20283;-69
2024/01/12 10:58:16;;;;;;;8.10;2.40;;;;;;;;;;5009738;28;20309;-70
2024/01/12 11:00:41;;;;;;;8.50;3.63;;;;;;;;;;5013012;28;20178;-71
2024/01/12 11:03:07;;;;;;;14.53;2.77;;;;;;;;;;4994259;28;20568;-70
2024/01/12 11:05:32;;;;;;;9.90;3.30;;;;;;;;;;4995679;28;20226;-71
2024/01/12 11:07:58;;;;;;;10.70;2.10;;;;;;;;;;5008354;28;20186;-68
2024/01/12 11:10:24;;;;;;;4.70;2.10;;;;;;;;;;5011066;28;20186;-69
2024/01/12 11:12:50;;;;;;;11.63;2.77;;;;;;;;;;5012295;28;20183;-70
2024/01/12 11:15:15;;;;;;;13.00;2.57;;;;;;;;;;5000569;28;20764;-70
2024/01/12 11:17:41;;;;;;;10.17;2.80;;;;;;;;;;5005543;28;20556;-71
2024/01/12 11:20:10;;;;;;;11.27;2.20;;;;;;;;;;4993398;28;20555;-70
2024/01/12 11:22:39;;;;;;;18.43;2.90;;;;;;;;;;4991322;28;20202;-70
2024/01/12 11:25:05;;;;;;;8.43;2.13;;;;;;;;;;5009559;28;20202;-70
2024/01/12 11:27:31;;;;;;;10.43;3.00;;;;;;;;;;5002478;28;20182;-69
2024/01/12 11:29:57;;;;;;;11.10;3.10;;;;;;;;;;5008628;28;20225;-69
2024/01/12 11:32:22;;;;;;;5.53;1.53;;;;;;;;;;5007719;28;20683;-71
2024/01/12 11:34:47;;;;;;;7.17;2.10;;;;;;;;;;5007869;28;20198;-71
2024/01/12 11:37:13;;;;;;;5.17;1.90;;;;;;;;;;5009463;28;20711;-69
2024/01/12 11:39:38;;;;;;;6.53;1.90;;;;;;;;;;5010939;28;20203;-70
2024/01/12 11:42:05;;;;;;;5.10;1.60;;;;;;;;;;5001907;28;20206;-70
2024/01/12 11:44:32;;;;;;;7.10;2.17;;;;;;;;;;4988803;28;20628;-71
2024/01/12 11:46:58;;;;;;;5.33;1.47;;;;;;;;;;5007756;28;20234;-70
2024/01/12 11:49:23;;;;;;;9.50;1.70;;;;;;;;;;5008792;28;20206;-70
2024/01/12 11:51:49;;;;;;;5.70;1.20;;;;;;;;;;4988572;28;20903;-71
2024/01/12 11:54:15;;;;;;;4.63;1.57;;;;;;;;;;5001499;28;20261;-71
2024/01/12 11:56:42;;;;;;;10.43;1.50;;;;;;;;;;5011932;28;20262;-70
2024/01/12 11:59:07;;;;;;;6.30;1.30;;;;;;;;;;5006119;28;20625;-71
2024/01/12 12:01:32;;;;;;;4.63;1.27;;;;;;;;;;5003685;28;20210;-70
2024/01/12 12:03:57;;;;;;;8.23;1.50;;;;;;;;;;5012268;28;20633;-70
2024/01/12 12:06:23;;;;;;;5.50;1.60;;;;;;;;;;5002557;28;20226;-70
2024/01/12 12:08:50;;;;;;;10.20;1.77;;;;;;;;;;5012417;28;20171;-70
2024/01/12 12:11:15;;;;;;;1.73;0.93;;;;;;;;;;5011828;28;20183;-70
2024/01/12 12:13:40;;;;;;;4.40;1.43;;;;;;;;;;5008541;28;20241;-70
2024/01/12 12:16:06;;;;;;;3.17;1.03;;;;;;;;;;5003212;28;20659;-70
2024/01/12 12:18:32;;;;;;;3.63;1.00;;;;;;;;;;5006383;28;20601;-72
2024/01/12 12:20:59;;;;;;;1.47;0.70;;;;;;;;;;5008134;28;20180;-70
2024/01/12 12:23:24;;;;;;;4.57;1.80;;;;;;;;;;5010655;28;20293;-69
2024/01/12 12:25:50;;;;;;;4.70;1.27;;;;;;;;;;5009585;28;20294;-72
2024/01/12 12:28:15;;;;;;;4.83;1.00;;;;;;;;;;5008584;28;20213;-70
2024/01/12 12:30:41;;;;;;;6.60;1.53;;;;;;;;;;4991288;28;20183;-70
2024/01/12 12:33:08;;;;;;;4.43;1.03;;;;;;;;;;5014326;28;20285;-70
2024/01/12 12:35:33;;;;;;;5.70;1.20;;;;;;;;;;4992266;28;20245;-71
2024/01/12 12:38:00;;;;;;;4.60;1.70;;;;;;;;;;5013110;28;20210;-69
2024/01/12 12:40:25;;;;;;;5.40;1.77;;;;;;;;;;5003576;28;22138;-70
2024/01/12 12:42:50;;;;;;;2.10;0.70;;;;;;;;;;5008371;28;20201;-69
2024/01/12 12:45:16;;;;;;;4.77;1.03;;;;;;;;;;5009077;28;20199;-69
2024/01/12 12:47:41;;;;;;;3.53;0.70;;;;;;;;;;5009936;28;20179;-70
2024/01/12 12:50:10;;;;;;;2.30;0.60;;;;;;;;;;5011547;28;20562;-69
2024/01/12 12:52:36;;;;;;;2.33;0.57;;;;;;;;;;5009899;28;20191;-70
2024/01/12 12:55:03;;;;;;;2.07;0.77;;;;;;;;;;5003263;28;20578;-69
2024/01/12 12:57:28;;;;;;;5.27;1.30;;;;;;;;;;5006790;28;20251;-70
2024/01/12 12:59:53;;;;;;;2.70;0.60;;;;;;;;;;5008981;28;20233;-71
2024/01/12 13:02:19;;;;;;;2.23;0.97;;;;;;;;;;4998682;28;20207;-70
2024/01/12 13:04:44;;;;;;;1.83;0.60;;;;;;;;;;5011188;28;20268;-71
2024/01/12 13:07:09;;;;;;;1.80;1.00;;;;;;;;;;5008608;28;20266;-70
2024/01/12 13:09:35;;;;;;;4.07;0.80;;;;;;;;;;5011482;28;20198;-71
2024/01/12 13:12:03;;;;;;;2.47;0.50;;;;;;;;;;5008901;28;20187;-70
2024/01/12 13:14:28;;;;;;;5.70;1.53;;;;;;;;;;5009199;28;20293;-69
2024/01/12 13:16:53;;;;;;;5.13;0.70;;;;;;;;;;5010778;28;20287;-70
2024/01/12 13:19:19;;;;;;;4.30;0.80;;;;;;;;;;5006378;28;20257;-69
2024/01/12 13:21:44;;;;;;;2.20;1.10;;;;;;;;;;5014511;28;20205;-70
2024/01/12 13:24:09;;;;;;;2.90;0.73;;;;;;;;;;4993347;28;20229;-69
2024/01/12 13:26:35;;;;;;;1.87;1.47;;;;;;;;;;5005752;28;20175;-70
2024/01/12 13:29:02;;;;;;;2.37;0.80;;;;;;;;;;5005221;28;20302;-70
2024/01/12 13:31:27;;;;;;;6.47;1.27;;;;;;;;;;4988692;28;20292;-69
2024/01/12 13:33:53;;;;;;;2.63;0.70;;;;;;;;;;5001874;28;20258;-71
2024/01/12 13:36:18;;;;;;;2.33;1.00;;;;;;;;;;5006188;28;20233;-69
2024/01/12 13:38:43;;;;;;;5.80;0.77;;;;;;;;;;5009649;28;20608;-69
2024/01/12 13:41:11;;;;;;;2.90;0.60;;;;;;;;;;4992468;28;20179;-70
2024/01/12 13:43:36;;;;;;;3.17;0.60;;;;;;;;;;4986838;28;20184;-69
2024/01/12 13:46:06;;;;;;;3.53;0.97;;;;;;;;;;5009694;28;20698;-70
2024/01/12 13:48:31;;;;;;;3.80;0.77;;;;;;;;;;5006546;28;20258;-71
2024/01/12 13:50:57;;;;;;;4.43;1.50;;;;;;;;;;5011699;28;20269;-70
2024/01/12 13:53:22;;;;;;;1.93;0.80;;;;;;;;;;5007965;28;20278;-69
2024/01/12 13:55:47;;;;;;;3.10;1.17;;;;;;;;;;5006652;28;20234;-71
2024/01/12 13:58:12;;;;;;;3.03;1.17;;;;;;;;;;5008360;28;20197;-70
2024/01/12 14:00:38;;;;;;;3.47;0.90;;;;;;;;;;4991723;28;20187;-71
2024/01/12 14:03:05;;;;;;;2.57;1.20;;;;;;;;;;5008018;28;20206;-70
2024/01/12 14:05:30;;;;;;;6.83;1.07;;;;;;;;;;4990706;28;20195;-70
2024/01/12 14:07:55;;;;;;;8.33;1.27;;;;;;;;;;5007552;28;20167;-70
2024/01/12 14:10:22;;;;;;;2.87;1.00;;;;;;;;;;5010218;28;20526;-70
2024/01/12 14:12:47;;;;;;;4.90;1.50;;;;;;;;;;5010409;28;20321;-70
2024/01/12 14:15:12;;;;;;;2.80;1.20;;;;;;;;;;5020419;23;20320;-70
2024/01/12 14:17:39;;;;;;;9.17;1.50;;;;;;;;;;5005215;28;20198;-70
2024/01/12 14:20:05;;;;;;;3.70;1.27;;;;;;;;;;5027656;28;20170;-70
2024/01/12 14:22:30;;;;;;;6.37;1.50;;;;;;;;;;5019981;28;20320;-70
2024/01/12 14:24:55;;;;;;;3.57;1.20;;;;;;;;;;5014698;28;20557;-70
2024/01/12 14:27:20;;;;;;;2.87;1.20;;;;;;;;;;5004315;28;20178;-70
2024/01/12 14:29:45;;;;;;;3.87;1.63;;;;;;;;;;5006049;28;20187;-69